sensor_id;sensor_type;location;lat;lon;timestamp;pressure;altitude;pressure_sealevel;temperature;humidity
68456;BME280;55437;55.046;38.838;2023-03-16T00:00:15;99755.50;;;5.43;56.92
68456;BME280;55437;55.046;38.838;2023-03-16T00:02:41;99760.56;;;5.47;56.81
68456;BME280;55437;55.046;38.838;2023-03-16T00:05:10;99758.88;;;5.44;56.87
68456;BME280;55437;55.046;38.838;2023-03-16T00:07:37;99758.03;;;5.45;56.56
68456;BME280;55437;55.046;38.838;2023-03-16T00:10:04;99759.72;;;5.44;56.73
68456;BME280;55437;55.046;38.838;2023-03-16T00:12:31;99758.81;;;5.50;56.75
68456;BME280;55437;55.046;38.838;2023-03-16T00:15:00;99758.88;;;5.46;56.42
68456;BME280;55437;55.046;38.838;2023-03-16T00:17:26;99756.41;;;5.39;56.51
68456;BME280;55437;55.046;38.838;2023-03-16T00:19:53;99758.13;;;5.39;56.59
68456;BME280;55437;55.046;38.838;2023-03-16T00:22:25;99756.47;;;5.32;56.82
68456;BME280;55437;55.046;38.838;2023-03-16T00:24:51;99754.84;;;5.28;57.23
68456;BME280;55437;55.046;38.838;2023-03-16T00:27:18;99752.31;;;5.26;56.98
68456;BME280;55437;55.046;38.838;2023-03-16T00:29:45;99749.78;;;5.25;57.06
68456;BME280;55437;55.046;38.838;2023-03-16T00:32:18;99753.19;;;5.24;57.39
68456;BME280;55437;55.046;38.838;2023-03-16T00:34:45;99748.13;;;5.21;57.05
68456;BME280;55437;55.046;38.838;2023-03-16T00:37:14;99752.44;;;5.19;57.01
68456;BME280;55437;55.046;38.838;2023-03-16T00:39:40;99746.53;;;5.15;57.16
68456;BME280;55437;55.046;38.838;2023-03-16T00:42:07;99751.59;;;5.17;57.03
68456;BME280;55437;55.046;38.838;2023-03-16T00:44:35;99749.91;;;5.14;57.41
68456;BME280;55437;55.046;38.838;2023-03-16T00:47:01;99757.59;;;5.11;57.33
68456;BME280;55437;55.046;38.838;2023-03-16T00:49:27;99756.75;;;5.09;57.44
68456;BME280;55437;55.046;38.838;2023-03-16T00:51:53;99756.75;;;5.09;57.47
68456;BME280;55437;55.046;38.838;2023-03-16T00:54:18;99743.28;;;5.02;57.35
68456;BME280;55437;55.046;38.838;2023-03-16T00:56:45;99750.06;;;5.00;57.45
68456;BME280;55437;55.046;38.838;2023-03-16T00:59:10;99746.59;;;5.07;57.44
68456;BME280;55437;55.046;38.838;2023-03-16T01:01:37;99738.06;;;5.12;57.45
68456;BME280;55437;55.046;38.838;2023-03-16T01:04:03;99736.38;;;5.11;57.27
68456;BME280;55437;55.046;38.838;2023-03-16T01:06:29;99726.97;;;5.19;57.43
68456;BME280;55437;55.046;38.838;2023-03-16T01:08:56;99733.72;;;5.20;57.22
68456;BME280;55437;55.046;38.838;2023-03-16T01:11:22;99729.44;;;5.23;57.06
68456;BME280;55437;55.046;38.838;2023-03-16T01:13:49;99733.66;;;5.26;57.17
68456;BME280;55437;55.046;38.838;2023-03-16T01:16:18;99737.03;;;5.29;57.08
68456;BME280;55437;55.046;38.838;2023-03-16T01:18:44;99729.28;;;5.37;56.82
68456;BME280;55437;55.046;38.838;2023-03-16T01:21:11;99736.88;;;5.41;56.67
68456;BME280;55437;55.046;38.838;2023-03-16T01:23:38;99737.75;;;5.39;56.50
68456;BME280;55437;55.046;38.838;2023-03-16T01:26:05;99735.19;;;5.39;56.67
68456;BME280;55437;55.046;38.838;2023-03-16T01:28:33;99740.31;;;5.36;56.57
68456;BME280;55437;55.046;38.838;2023-03-16T01:31:05;99746.28;;;5.35;56.46
68456;BME280;55437;55.046;38.838;2023-03-16T01:33:33;99741.19;;;5.33;56.59
68456;BME280;55437;55.046;38.838;2023-03-16T01:36:11;99743.72;;;5.36;56.62
68456;BME280;55437;55.046;38.838;2023-03-16T01:39:13;99744.53;;;5.40;56.62
68456;BME280;55437;55.046;38.838;2023-03-16T01:41:44;99748.75;;;5.41;56.72
68456;BME280;55437;55.046;38.838;2023-03-16T01:44:19;99755.56;;;5.40;56.54
68456;BME280;55437;55.046;38.838;2023-03-16T01:46:47;99747.09;;;5.38;56.79
68456;BME280;55437;55.046;38.838;2023-03-16T01:52:12;99737.00;;;5.31;56.83
68456;BME280;55437;55.046;38.838;2023-03-16T01:54:43;99725.16;;;5.28;56.70
68456;BME280;55437;55.046;38.838;2023-03-16T01:59:54;99720.00;;;5.31;56.99
68456;BME280;55437;55.046;38.838;2023-03-16T02:02:24;99729.38;;;5.31;57.06
68456;BME280;55437;55.046;38.838;2023-03-16T02:05:01;99721.78;;;5.26;57.18
68456;BME280;55437;55.046;38.838;2023-03-16T02:07:33;99715.88;;;5.24;57.40
68456;BME280;55437;55.046;38.838;2023-03-16T02:10:00;99704.81;;;5.27;57.48
68456;BME280;55437;55.046;38.838;2023-03-16T02:12:29;99708.25;;;5.23;57.53
68456;BME280;55437;55.046;38.838;2023-03-16T02:15:22;99703.16;;;5.21;58.14
68456;BME280;55437;55.046;38.838;2023-03-16T02:17:49;99703.09;;;5.29;58.19
68456;BME280;55437;55.046;38.838;2023-03-16T02:23:19;99693.66;;;5.34;58.38
68456;BME280;55437;55.046;38.838;2023-03-16T02:26:14;99687.88;;;5.24;58.79
68456;BME280;55437;55.046;38.838;2023-03-16T02:29:10;99687.88;;;5.24;59.38
68456;BME280;55437;55.046;38.838;2023-03-16T02:31:39;99677.72;;;5.20;59.18
68456;BME280;55437;55.046;38.838;2023-03-16T02:34:08;99681.97;;;5.21;59.48
68456;BME280;55437;55.046;38.838;2023-03-16T02:36:35;99682.00;;;5.19;59.67
68456;BME280;55437;55.046;38.838;2023-03-16T02:39:02;99681.16;;;5.19;59.74
68456;BME280;55437;55.046;38.838;2023-03-16T02:41:38;99687.13;;;5.15;59.84
68456;BME280;55437;55.046;38.838;2023-03-16T02:44:26;99682.91;;;5.14;60.08
68456;BME280;55437;55.046;38.838;2023-03-16T02:46:55;99682.06;;;5.15;60.31
68456;BME280;55437;55.046;38.838;2023-03-16T02:49:26;99682.09;;;5.10;60.69
68456;BME280;55437;55.046;38.838;2023-03-16T02:51:54;99682.19;;;5.05;60.94
68456;BME280;55437;55.046;38.838;2023-03-16T02:54:40;99683.88;;;5.03;61.39
68456;BME280;55437;55.046;38.838;2023-03-16T02:57:08;99677.13;;;5.02;61.71
68456;BME280;55437;55.046;38.838;2023-03-16T02:59:52;99679.69;;;4.99;62.00
68456;BME280;55437;55.046;38.838;2023-03-16T03:02:18;99689.13;;;4.91;62.41
68456;BME280;55437;55.046;38.838;2023-03-16T03:04:44;99685.75;;;4.88;62.55
68456;BME280;55437;55.046;38.838;2023-03-16T03:07:12;99683.22;;;4.86;62.78
68456;BME280;55437;55.046;38.838;2023-03-16T03:10:06;99689.25;;;4.79;63.21
68456;BME280;55437;55.046;38.838;2023-03-16T03:12:32;99690.09;;;4.81;63.41
68456;BME280;55437;55.046;38.838;2023-03-16T03:14:58;99690.94;;;4.82;63.74
68456;BME280;55437;55.046;38.838;2023-03-16T03:17:26;99691.81;;;4.78;63.97
68456;BME280;55437;55.046;38.838;2023-03-16T03:19:59;99690.13;;;4.75;64.42
68456;BME280;55437;55.046;38.838;2023-03-16T03:22:26;99688.47;;;4.71;64.65
68456;BME280;55437;55.046;38.838;2023-03-16T03:24:53;99678.28;;;4.72;64.70
68456;BME280;55437;55.046;38.838;2023-03-16T03:27:20;99674.91;;;4.72;64.79
68456;BME280;55437;55.046;38.838;2023-03-16T03:29:50;99671.59;;;4.65;65.32
68456;BME280;55437;55.046;38.838;2023-03-16T03:32:16;99682.72;;;4.58;65.66
68456;BME280;55437;55.046;38.838;2023-03-16T03:34:42;99679.38;;;4.52;65.84
68456;BME280;55437;55.046;38.838;2023-03-16T03:37:08;99678.50;;;4.53;66.12
68456;BME280;55437;55.046;38.838;2023-03-16T03:39:34;99679.34;;;4.56;66.21
68456;BME280;55437;55.046;38.838;2023-03-16T03:42:00;99678.50;;;4.54;66.54
68456;BME280;55437;55.046;38.838;2023-03-16T03:44:29;99678.47;;;4.57;66.62
68456;BME280;55437;55.046;38.838;2023-03-16T03:46:57;99682.66;;;4.60;66.59
68456;BME280;55437;55.046;38.838;2023-03-16T03:49:25;99682.75;;;4.54;67.27
68456;BME280;55437;55.046;38.838;2023-03-16T03:51:51;99681.94;;;4.47;67.25
68456;BME280;55437;55.046;38.838;2023-03-16T03:54:23;99687.91;;;4.46;67.39
68456;BME280;55437;55.046;38.838;2023-03-16T03:56:56;99686.22;;;4.47;67.41
68456;BME280;55437;55.046;38.838;2023-03-16T03:59:22;99688.78;;;4.45;67.76
68456;BME280;55437;55.046;38.838;2023-03-16T04:02:06;99679.38;;;4.50;67.76
68456;BME280;55437;55.046;38.838;2023-03-16T04:04:53;99677.66;;;4.54;67.86
68456;BME280;55437;55.046;38.838;2023-03-16T04:07:18;99677.69;;;4.51;67.82
68456;BME280;55437;55.046;38.838;2023-03-16T04:09:45;99670.88;;;4.56;67.86
68456;BME280;55437;55.046;38.838;2023-03-16T04:12:25;99661.47;;;4.61;67.92
68456;BME280;55437;55.046;38.838;2023-03-16T04:14:52;99674.25;;;4.55;67.99
68456;BME280;55437;55.046;38.838;2023-03-16T04:17:19;99663.28;;;4.50;68.31
68456;BME280;55437;55.046;38.838;2023-03-16T04:19:46;99676.00;;;4.50;68.12
68456;BME280;55437;55.046;38.838;2023-03-16T04:22:14;99686.06;;;4.60;68.21
68456;BME280;55437;55.046;38.838;2023-03-16T04:24:41;99684.31;;;4.64;68.12
68456;BME280;55437;55.046;38.838;2023-03-16T04:27:08;99680.94;;;4.63;68.29
68456;BME280;55437;55.046;38.838;2023-03-16T04:29:37;99683.47;;;4.66;68.33
68456;BME280;55437;55.046;38.838;2023-03-16T04:32:05;99686.84;;;4.68;68.56
68456;BME280;55437;55.046;38.838;2023-03-16T04:34:32;99692.75;;;4.69;68.25
68456;BME280;55437;55.046;38.838;2023-03-16T04:37:01;99682.59;;;4.69;68.29
68456;BME280;55437;55.046;38.838;2023-03-16T04:39:28;99677.56;;;4.63;68.36
68456;BME280;55437;55.046;38.838;2023-03-16T04:41:53;99677.53;;;4.67;68.38
68456;BME280;55437;55.046;38.838;2023-03-16T04:44:21;99684.22;;;4.71;68.38
68456;BME280;55437;55.046;38.838;2023-03-16T04:46:50;99691.00;;;4.74;68.08
68456;BME280;55437;55.046;38.838;2023-03-16T04:49:17;99689.28;;;4.75;68.00
68456;BME280;55437;55.046;38.838;2023-03-16T04:51:44;99678.28;;;4.74;67.68
68456;BME280;55437;55.046;38.838;2023-03-16T04:54:14;99670.63;;;4.77;68.22
68456;BME280;55437;55.046;38.838;2023-03-16T04:56:41;99676.53;;;4.79;68.16
68456;BME280;55437;55.046;38.838;2023-03-16T04:59:16;99677.41;;;4.75;68.26
68456;BME280;55437;55.046;38.838;2023-03-16T05:01:51;99673.13;;;4.82;67.94
68456;BME280;55437;55.046;38.838;2023-03-16T05:04:19;99677.22;;;4.95;67.78
68456;BME280;55437;55.046;38.838;2023-03-16T05:06:47;99690.72;;;5.00;67.50
68456;BME280;55437;55.046;38.838;2023-03-16T05:09:14;99694.06;;;5.05;67.44
68456;BME280;55437;55.046;38.838;2023-03-16T05:11:40;99693.25;;;5.01;67.32
68456;BME280;55437;55.046;38.838;2023-03-16T05:14:09;99694.88;;;5.07;67.26
68456;BME280;55437;55.046;38.838;2023-03-16T05:16:48;99685.47;;;5.12;67.30
68456;BME280;55437;55.046;38.838;2023-03-16T05:19:14;99687.16;;;5.13;67.30
68456;BME280;55437;55.046;38.838;2023-03-16T05:21:40;99677.88;;;5.09;67.28
68456;BME280;55437;55.046;38.838;2023-03-16T05:24:09;99682.06;;;5.15;67.19
68456;BME280;55437;55.046;38.838;2023-03-16T05:26:37;99680.28;;;5.20;66.98
68456;BME280;55437;55.046;38.838;2023-03-16T05:29:08;99677.66;;;5.26;66.87
68456;BME280;55437;55.046;38.838;2023-03-16T05:31:34;99676.88;;;5.21;67.09
68456;BME280;55437;55.046;38.838;2023-03-16T05:34:07;99684.44;;;5.27;66.76
68456;BME280;55437;55.046;38.838;2023-03-16T05:36:33;99682.66;;;5.33;66.85
68456;BME280;55437;55.046;38.838;2023-03-16T05:39:05;99688.59;;;5.32;66.74
68456;BME280;55437;55.046;38.838;2023-03-16T05:41:40;99687.69;;;5.36;66.64
68456;BME280;55437;55.046;38.838;2023-03-16T05:44:12;99691.94;;;5.36;66.94
68456;BME280;55437;55.046;38.838;2023-03-16T05:46:54;99691.09;;;5.37;67.02
68456;BME280;55437;55.046;38.838;2023-03-16T05:49:21;99694.44;;;5.40;66.92
68456;BME280;55437;55.046;38.838;2023-03-16T05:51:48;99691.84;;;5.43;66.80
68456;BME280;55437;55.046;38.838;2023-03-16T05:54:15;99689.34;;;5.42;66.85
68456;BME280;55437;55.046;38.838;2023-03-16T05:56:43;99690.19;;;5.41;66.92
68456;BME280;55437;55.046;38.838;2023-03-16T05:59:09;99684.25;;;5.40;66.90
68456;BME280;55437;55.046;38.838;2023-03-16T06:01:35;99683.28;;;5.49;67.02
68456;BME280;55437;55.046;38.838;2023-03-16T06:04:03;99684.16;;;5.48;66.99
68456;BME280;55437;55.046;38.838;2023-03-16T06:06:33;99690.03;;;5.53;66.78
68456;BME280;55437;55.046;38.838;2023-03-16T06:09:09;99690.88;;;5.54;66.50
68456;BME280;55437;55.046;38.838;2023-03-16T06:11:35;99695.13;;;5.53;66.83
68456;BME280;55437;55.046;38.838;2023-03-16T06:14:02;99696.72;;;5.60;66.69
68456;BME280;55437;55.046;38.838;2023-03-16T06:16:54;99691.59;;;5.63;66.42
68456;BME280;55437;55.046;38.838;2023-03-16T06:19:20;99682.06;;;5.74;66.20
68456;BME280;55437;55.046;38.838;2023-03-16T06:21:50;99693.09;;;5.76;66.23
68456;BME280;55437;55.046;38.838;2023-03-16T06:24:16;99693.22;;;5.67;66.48
68456;BME280;55437;55.046;38.838;2023-03-16T06:26:43;99691.59;;;5.63;66.43
68456;BME280;55437;55.046;38.838;2023-03-16T06:29:11;99683.84;;;5.69;66.43
68456;BME280;55437;55.046;38.838;2023-03-16T06:31:38;99679.56;;;5.71;66.50
68456;BME280;55437;55.046;38.838;2023-03-16T06:34:05;99683.81;;;5.71;66.48
68456;BME280;55437;55.046;38.838;2023-03-16T06:36:31;99698.31;;;5.67;66.50
68456;BME280;55437;55.046;38.838;2023-03-16T06:39:00;99697.44;;;5.68;66.96
68456;BME280;55437;55.046;38.838;2023-03-16T06:42:12;99705.81;;;5.78;66.46
68456;BME280;55437;55.046;38.838;2023-03-16T06:44:38;99705.03;;;5.73;66.56
68456;BME280;55437;55.046;38.838;2023-03-16T06:47:08;99697.50;;;5.65;66.82
68456;BME280;55437;55.046;38.838;2023-03-16T06:49:36;99703.44;;;5.66;66.76
68456;BME280;55437;55.046;38.838;2023-03-16T06:52:07;99693.25;;;5.64;66.79
68456;BME280;55437;55.046;38.838;2023-03-16T06:54:35;99700.81;;;5.69;66.71
68456;BME280;55437;55.046;38.838;2023-03-16T06:57:02;99702.34;;;5.80;66.52
68456;BME280;55437;55.046;38.838;2023-03-16T06:59:28;99698.88;;;5.86;66.27
68456;BME280;55437;55.046;38.838;2023-03-16T07:01:56;99706.53;;;5.86;66.26
68456;BME280;55437;55.046;38.838;2023-03-16T07:04:21;99699.72;;;5.90;66.09
68456;BME280;55437;55.046;38.838;2023-03-16T07:06:48;99697.03;;;5.99;66.10
68456;BME280;55437;55.046;38.838;2023-03-16T07:09:15;99705.50;;;5.99;65.90
68456;BME280;55437;55.046;38.838;2023-03-16T07:11:40;99703.69;;;6.06;65.99
68456;BME280;55437;55.046;38.838;2023-03-16T07:14:06;99705.50;;;6.01;65.80
68456;BME280;55437;55.046;38.838;2023-03-16T07:16:33;99697.00;;;6.00;66.18
68456;BME280;55437;55.046;38.838;2023-03-16T07:19:02;99703.94;;;5.91;66.17
68456;BME280;55437;55.046;38.838;2023-03-16T07:21:29;99708.06;;;5.98;65.89
68456;BME280;55437;55.046;38.838;2023-03-16T07:24:04;99704.66;;;6.00;65.97
68456;BME280;55437;55.046;38.838;2023-03-16T07:26:35;99707.94;;;6.07;66.04
68456;BME280;55437;55.046;38.838;2023-03-16T07:29:01;99698.53;;;6.10;65.87
68456;BME280;55437;55.046;38.838;2023-03-16T07:31:29;99696.78;;;6.14;65.70
68456;BME280;55437;55.046;38.838;2023-03-16T07:33:57;99692.38;;;6.24;65.17
68456;BME280;55437;55.046;38.838;2023-03-16T07:36:46;99692.31;;;6.27;65.21
68456;BME280;55437;55.046;38.838;2023-03-16T07:39:14;99686.38;;;6.28;65.25
68456;BME280;55437;55.046;38.838;2023-03-16T07:41:44;99690.66;;;6.24;65.09
68456;BME280;55437;55.046;38.838;2023-03-16T07:44:16;99683.66;;;6.35;65.39
68456;BME280;55437;55.046;38.838;2023-03-16T07:46:46;99688.75;;;6.37;65.29
68456;BME280;55437;55.046;38.838;2023-03-16T07:49:12;99696.41;;;6.35;65.46
68456;BME280;55437;55.046;38.838;2023-03-16T07:51:38;99689.69;;;6.30;65.23
68456;BME280;55437;55.046;38.838;2023-03-16T07:54:05;99697.53;;;6.19;65.27
68456;BME280;55437;55.046;38.838;2023-03-16T07:56:49;99708.75;;;6.09;65.37
68456;BME280;55437;55.046;38.838;2023-03-16T07:59:24;99717.38;;;6.02;65.34
68456;BME280;55437;55.046;38.838;2023-03-16T08:01:50;99713.22;;;5.93;65.61
68456;BME280;55437;55.046;38.838;2023-03-16T08:04:15;99713.44;;;5.79;65.85
68456;BME280;55437;55.046;38.838;2023-03-16T08:06:41;99698.25;;;5.70;66.21
68456;BME280;55437;55.046;38.838;2023-03-16T08:09:08;99690.56;;;5.73;66.06
68456;BME280;55437;55.046;38.838;2023-03-16T08:11:37;99686.34;;;5.72;66.13
68456;BME280;55437;55.046;38.838;2023-03-16T08:14:03;99689.69;;;5.77;66.26
68456;BME280;55437;55.046;38.838;2023-03-16T08:20:22;99673.28;;;5.95;65.81
68456;BME280;55437;55.046;38.838;2023-03-16T08:22:48;99676.63;;;5.99;65.73
68456;BME280;55437;55.046;38.838;2023-03-16T08:25:17;99679.06;;;6.05;65.56
68456;BME280;55437;55.046;38.838;2023-03-16T08:27:58;99676.50;;;6.06;65.46
68456;BME280;55437;55.046;38.838;2023-03-16T08:30:24;99680.88;;;6.00;65.71
68456;BME280;55437;55.046;38.838;2023-03-16T08:33:06;99685.94;;;6.03;65.83
68456;BME280;55437;55.046;38.838;2023-03-16T08:35:32;99673.25;;;5.98;65.81
68456;BME280;55437;55.046;38.838;2023-03-16T08:37:58;99681.69;;;6.02;65.97
68456;BME280;55437;55.046;38.838;2023-03-16T08:40:24;99680.00;;;6.02;65.94
68456;BME280;55437;55.046;38.838;2023-03-16T08:42:53;99680.94;;;5.94;66.07
68456;BME280;55437;55.046;38.838;2023-03-16T08:45:20;99680.88;;;5.98;66.06
68456;BME280;55437;55.046;38.838;2023-03-16T08:47:48;99670.81;;;5.91;66.43
68456;BME280;55437;55.046;38.838;2023-03-16T08:50:14;99679.38;;;5.84;66.59
68456;BME280;55437;55.046;38.838;2023-03-16T08:52:40;99673.44;;;5.83;66.89
68456;BME280;55437;55.046;38.838;2023-03-16T08:55:07;99671.88;;;5.74;67.02
68456;BME280;55437;55.046;38.838;2023-03-16T08:57:35;99678.69;;;5.72;67.11
68456;BME280;55437;55.046;38.838;2023-03-16T09:00:04;99674.50;;;5.70;67.63
68456;BME280;55437;55.046;38.838;2023-03-16T09:02:41;99667.59;;;5.78;67.24
68456;BME280;55437;55.046;38.838;2023-03-16T09:05:08;99659.81;;;5.89;66.97
68456;BME280;55437;55.046;38.838;2023-03-16T09:07:35;99656.31;;;5.94;66.87
68456;BME280;55437;55.046;38.838;2023-03-16T09:10:01;99652.16;;;5.89;67.04
68456;BME280;55437;55.046;38.838;2023-03-16T09:12:30;99650.44;;;5.91;67.08
68456;BME280;55437;55.046;38.838;2023-03-16T09:14:57;99657.16;;;5.95;66.95
68456;BME280;55437;55.046;38.838;2023-03-16T09:17:23;99651.22;;;5.93;66.82
68456;BME280;55437;55.046;38.838;2023-03-16T09:19:49;99653.00;;;5.91;67.04
68456;BME280;55437;55.046;38.838;2023-03-16T09:22:14;99655.56;;;5.89;66.96
68456;BME280;55437;55.046;38.838;2023-03-16T09:24:43;99657.34;;;5.81;67.51
68456;BME280;55437;55.046;38.838;2023-03-16T09:27:09;99660.69;;;5.85;67.50
68456;BME280;55437;55.046;38.838;2023-03-16T09:29:35;99660.69;;;5.83;67.41
68456;BME280;55437;55.046;38.838;2023-03-16T09:32:01;99656.44;;;5.84;67.75
68456;BME280;55437;55.046;38.838;2023-03-16T09:34:29;99658.19;;;5.82;67.75
68456;BME280;55437;55.046;38.838;2023-03-16T09:37:21;99662.34;;;5.90;67.48
68456;BME280;55437;55.046;38.838;2023-03-16T09:40:37;99659.81;;;5.87;67.29
68456;BME280;55437;55.046;38.838;2023-03-16T09:48:24;99657.28;;;5.84;67.17
68456;BME280;55437;55.046;38.838;2023-03-16T09:50:52;99662.47;;;5.79;67.20
68456;BME280;55437;55.046;38.838;2023-03-16T09:53:26;99657.34;;;5.81;67.11
68456;BME280;55437;55.046;38.838;2023-03-16T09:55:59;99656.44;;;5.84;67.00
68456;BME280;55437;55.046;38.838;2023-03-16T09:58:27;99653.78;;;5.93;67.06
68456;BME280;55437;55.046;38.838;2023-03-16T10:01:12;99657.16;;;5.95;67.54
68456;BME280;55437;55.046;38.838;2023-03-16T10:04:04;99655.38;;;6.00;67.32
68456;BME280;55437;55.046;38.838;2023-03-16T10:06:43;99654.38;;;6.10;67.09
68456;BME280;55437;55.046;38.838;2023-03-16T10:09:18;99663.56;;;6.17;67.10
68456;BME280;55437;55.046;38.838;2023-03-16T10:11:51;99667.75;;;6.21;66.71
68456;BME280;55437;55.046;38.838;2023-03-16T10:14:29;99666.91;;;6.22;66.65
68456;BME280;55437;55.046;38.838;2023-03-16T10:17:23;99671.31;;;6.12;67.00
68456;BME280;55437;55.046;38.838;2023-03-16T10:19:48;99668.66;;;6.19;66.80
68456;BME280;55437;55.046;38.838;2023-03-16T10:22:22;99666.78;;;6.28;66.77
68456;BME280;55437;55.046;38.838;2023-03-16T10:25:03;99654.94;;;6.27;66.44
68456;BME280;55437;55.046;38.838;2023-03-16T10:27:36;99663.47;;;6.25;66.55
68456;BME280;55437;55.046;38.838;2023-03-16T10:30:13;99670.34;;;6.18;66.98
68456;BME280;55437;55.046;38.838;2023-03-16T10:32:44;99666.31;;;6.05;67.10
68456;BME280;55437;55.046;38.838;2023-03-16T10:35:45;99672.25;;;6.05;67.32
68456;BME280;55437;55.046;38.838;2023-03-16T10:38:45;99680.81;;;6.03;67.36
68456;BME280;55437;55.046;38.838;2023-03-16T10:43:53;99689.41;;;5.96;67.17
68456;BME280;55437;55.046;38.838;2023-03-16T10:46:21;99688.66;;;5.91;67.07
68456;BME280;55437;55.046;38.838;2023-03-16T10:48:58;99682.91;;;5.76;67.88
68456;BME280;55437;55.046;38.838;2023-03-16T10:51:28;99685.44;;;5.78;67.90
68456;BME280;55437;55.046;38.838;2023-03-16T10:54:00;99677.81;;;5.75;68.11
68456;BME280;55437;55.046;38.838;2023-03-16T10:56:32;99691.38;;;5.77;68.03
68456;BME280;55437;55.046;38.838;2023-03-16T10:58:58;99691.41;;;5.74;68.23
68456;BME280;55437;55.046;38.838;2023-03-16T11:01:27;99694.88;;;5.68;68.33
68456;BME280;55437;55.046;38.838;2023-03-16T11:03:55;99700.81;;;5.70;68.28
68456;BME280;55437;55.046;38.838;2023-03-16T11:06:22;99697.44;;;5.68;68.48
68456;BME280;55437;55.046;38.838;2023-03-16T11:08:51;99706.66;;;5.77;68.66
68456;BME280;55437;55.046;38.838;2023-03-16T11:11:30;99700.66;;;5.81;68.07
68456;BME280;55437;55.046;38.838;2023-03-16T11:14:03;99700.63;;;5.83;68.14
68456;BME280;55437;55.046;38.838;2023-03-16T11:17:02;99699.72;;;5.87;68.46
68456;BME280;55437;55.046;38.838;2023-03-16T11:19:32;99697.22;;;5.84;68.26
68456;BME280;55437;55.046;38.838;2023-03-16T11:22:12;99706.69;;;5.75;68.56
68456;BME280;55437;55.046;38.838;2023-03-16T11:33:14;99680.34;;;5.78;68.64
68456;BME280;55437;55.046;38.838;2023-03-16T11:35:45;99680.22;;;5.84;68.44
68456;BME280;55437;55.046;38.838;2023-03-16T11:38:36;99692.97;;;5.83;68.73
68456;BME280;55437;55.046;38.838;2023-03-16T11:47:07;99694.56;;;5.93;68.29
68456;BME280;55437;55.046;38.838;2023-03-16T11:49:49;99696.31;;;5.88;68.48
68456;BME280;55437;55.046;38.838;2023-03-16T11:56:37;99707.19;;;6.00;68.28
68456;BME280;55437;55.046;38.838;2023-03-16T12:12:38;99709.22;;;5.75;68.40
68456;BME280;55437;55.046;38.838;2023-03-16T12:18:11;99714.16;;;5.89;68.47
68456;BME280;55437;55.046;38.838;2023-03-16T12:20:54;99709.94;;;5.85;68.56
68456;BME280;55437;55.046;38.838;2023-03-16T12:23:33;99714.28;;;5.78;68.47
68456;BME280;55437;55.046;38.838;2023-03-16T12:26:02;99710.94;;;5.75;68.84
68456;BME280;55437;55.046;38.838;2023-03-16T12:28:29;99709.25;;;5.74;68.70
68456;BME280;55437;55.046;38.838;2023-03-16T12:31:13;99706.66;;;5.77;68.58
68456;BME280;55437;55.046;38.838;2023-03-16T12:34:06;99715.22;;;5.73;68.57
68456;BME280;55437;55.046;38.838;2023-03-16T12:43:45;99696.38;;;5.82;68.76
68456;BME280;55437;55.046;38.838;2023-03-16T12:48:26;99698.09;;;5.81;68.51
68456;BME280;55437;55.046;38.838;2023-03-16T12:50:59;99699.88;;;5.76;68.46
68456;BME280;55437;55.046;38.838;2023-03-16T12:53:37;99687.16;;;5.76;68.75
68456;BME280;55437;55.046;38.838;2023-03-16T12:56:06;99690.53;;;5.78;68.73
68456;BME280;55437;55.046;38.838;2023-03-16T12:58:39;99689.59;;;5.80;68.64
68456;BME280;55437;55.046;38.838;2023-03-16T13:01:09;99684.59;;;5.77;68.91
68456;BME280;55437;55.046;38.838;2023-03-16T13:03:37;99691.25;;;5.85;68.69
68456;BME280;55437;55.046;38.838;2023-03-16T13:06:03;99692.06;;;5.91;68.54
68456;BME280;55437;55.046;38.838;2023-03-16T13:08:40;99686.88;;;5.94;68.48
68456;BME280;55437;55.046;38.838;2023-03-16T13:11:42;99680.03;;;5.99;68.27
68456;BME280;55437;55.046;38.838;2023-03-16T13:14:15;99681.66;;;6.03;68.01
68456;BME280;55437;55.046;38.838;2023-03-16T13:16:41;99685.16;;;5.98;68.29
68456;BME280;55437;55.046;38.838;2023-03-16T13:19:23;99689.38;;;5.99;68.09
68456;BME280;55437;55.046;38.838;2023-03-16T13:22:18;99687.69;;;5.98;68.11
68456;BME280;55437;55.046;38.838;2023-03-16T13:24:53;99679.22;;;5.96;68.05
68456;BME280;55437;55.046;38.838;2023-03-16T13:27:28;99681.88;;;5.90;68.27
68456;BME280;55437;55.046;38.838;2023-03-16T13:29:58;99690.31;;;5.93;68.50
68456;BME280;55437;55.046;38.838;2023-03-16T13:32:29;99683.53;;;5.92;68.29
68456;BME280;55437;55.046;38.838;2023-03-16T13:34:59;99693.69;;;5.94;68.29
68456;BME280;55437;55.046;38.838;2023-03-16T13:37:27;99688.66;;;5.88;68.31
68456;BME280;55437;55.046;38.838;2023-03-16T13:39:55;99675.94;;;5.88;68.26
68456;BME280;55437;55.046;38.838;2023-03-16T13:42:23;99669.16;;;5.87;68.47
68456;BME280;55437;55.046;38.838;2023-03-16T13:44:54;99664.97;;;5.81;68.32
68456;BME280;55437;55.046;38.838;2023-03-16T13:47:21;99663.28;;;5.80;68.57
68456;BME280;55437;55.046;38.838;2023-03-16T13:49:49;99656.41;;;5.88;68.87
68456;BME280;55437;55.046;38.838;2023-03-16T13:52:30;99664.91;;;5.89;68.32
68456;BME280;55437;55.046;38.838;2023-03-16T13:55:00;99656.44;;;5.85;68.29
68456;BME280;55437;55.046;38.838;2023-03-16T13:57:28;99662.34;;;5.89;68.27
68456;BME280;55437;55.046;38.838;2023-03-16T14:03:18;99651.97;;;6.01;68.09
68456;BME280;55437;55.046;38.838;2023-03-16T14:05:46;99656.97;;;6.05;67.92
68456;BME280;55437;55.046;38.838;2023-03-16T14:08:20;99665.53;;;6.03;67.89
68456;BME280;55437;55.046;38.838;2023-03-16T14:10:49;99668.13;;;6.00;67.59
68456;BME280;55437;55.046;38.838;2023-03-16T14:13:33;99673.13;;;6.04;67.59
68456;BME280;55437;55.046;38.838;2023-03-16T14:16:17;99674.91;;;6.01;67.69
68456;BME280;55437;55.046;38.838;2023-03-16T14:18:52;99675.78;;;6.00;67.51
68456;BME280;55437;55.046;38.838;2023-03-16T14:21:25;99676.63;;;6.00;67.77
68456;BME280;55437;55.046;38.838;2023-03-16T14:23:53;99671.56;;;5.97;67.74
68456;BME280;55437;55.046;38.838;2023-03-16T14:26:22;99670.84;;;5.88;68.05
68456;BME280;55437;55.046;38.838;2023-03-16T14:29:05;99665.75;;;5.88;68.15